Huvudsida
METAR-TAF:

METAR-TAF

Flygplatser :

Curaçaos internationella flygplats

Curaçao, Nederländska Antillerna

latitud: 12-12N, longitud: 068-58W, höjd: 9 m

Aktuellt väderrapport

Denna rapport gjordes för 56 minuter sedan, klockan 14:00 UTC
Vind 12 kt från ost
Temperatur 29°C
Fuktighet 62%
Tryck 1014 hPa
Sikt 10 km eller mer

METAR: TNCC 231400Z AUTO 10012KT 9999 NCD 29/21 Q1014

Tid: 10:56 (14:56 UTC)

Väderprognos

Denna rapport gjordes för 5 timmar och 11 minuter sedan, klockan 09:45 UTC
Prognos gäller från 23 kl. 12 UTC till 24 kl. 12 UTC
Vind 11 kt från ost
Sikt 10 km eller mer
Spridda moln på en höjd av 2000 ft
Temporärt
från 24 kl. 00 UTC till 24 kl. 12 UTC
Brutna moln på en höjd av 1500 ft
Brutna moln på en höjd av 3000 ft
Sannolikhet 30% :
Temporärt
från 24 kl. 04 UTC till 24 kl. 12 UTC
Sikt: 5000 m
regnskurar

TAF: TNCC 230945Z 2312/2412 10011KT 9999 SCT020 TEMPO 2400/2412 BKN015 BKN030 PROB30 TEMPO 2404/2412 5000 SHRA

Aktuella väderrapporter och prognoser från 4000 flygplatser (METAR- och TAF-rapporter).

De tillgängliga stationerna syns som gula och röda prickar på kartan.

För musen över prickarna för att se namnen på stationerna.

Klicka sedan för att få väderrapporter och prognoser.

För att ändra kartan: Klicka på de gröna knapparna med ett svart kors på för att zooma in; den gröna knappen med ett streck på för att zooma ut; eller på de gröna pilarna för angränsande kartor.


METAR-TAF: